Impacts METAR Board
IDs:

KCFD - Bryan/Coulter Fld, TX, US

Updated at: 0100 UTC 01 Nov 2020
Potential Impact None Slight Moderate High
Time 31/13Z 31/14Z 31/15Z 31/16Z 31/17Z 31/18Z 31/19Z 31/20Z 31/21Z 31/22Z 31/23Z 01/00Z 01/01Z
Temp37 46 55 60 66 68 70 72 73 73 71 63 60
Dewpt37 45 48 47 45 43 44 43 44 44 44 46 46
Altim30.25 30.26 30.27 30.27 30.26 30.23 30.19 30.15 30.13 30.12 30.12 30.13 30.15
VIS10 10 10 10 10 10 10 10 10 10 10 10 10
CIG-- -- -- -- -- -- -- -- -- -- -- -- --
CoverCLRCLRCLRCLRCLRCLRCLRCLRCLRCLRCLRCLRCLR
FltCatVFRVFRVFRVFRVFRVFRVFRVFRVFRVFRVFRVFRVFR
WX--------------------------
WDir0015019020021022015001501500150
WSpd0 0 3 4 4 3 4 4 0 5 6 0 3
WGst-- -- -- -- -- -- -- -- -- -- -- -- --
Raw hourly METARs
KCFD 311255Z AUTO 00000KT 10SM CLR 03/03 A3025 RMK AO2 T00300030
KCFD 311355Z AUTO 00000KT 10SM CLR 08/07 A3026 RMK AO2 T00800071
KCFD 311455Z AUTO 15003KT 10SM CLR 13/09 A3027 RMK AO2 T01260087
KCFD 311555Z AUTO 19004KT 10SM CLR 16/09 A3027 RMK AO2 T01580086
KCFD 311655Z AUTO 20004KT 10SM CLR 19/07 A3026 RMK AO2 T01890073
KCFD 311755Z AUTO 21003KT 10SM CLR 20/06 A3023 RMK AO2 T01990062 10201 20028
KCFD 311855Z AUTO 22004KT 10SM CLR 21/07 A3019 RMK AO2 T02110065
KCFD 311955Z AUTO 15004KT 10SM CLR 22/06 A3015 RMK AO2 T02230060
KCFD 312055Z AUTO 00000KT 10SM CLR 23/06 A3013 RMK AO2 T02280064
KCFD 312155Z AUTO 15005KT 10SM CLR 23/07 A3012 RMK AO2 T02300068
KCFD 312255Z AUTO 15006KT 10SM CLR 22/07 A3012 RMK AO2 T02180069
KCFD 312355Z AUTO 00000KT 10SM CLR 17/08 A3013 RMK AO2 T01710076 10231 20171
KCFD 010055Z AUTO 15003KT 10SM CLR 15/08 A3015 RMK AO2 T01540080